createdAt,value
2023-02-02T00:02:05.298Z,14.93
2023-02-02T00:04:35.010Z,19.92
2023-02-02T00:07:05.238Z,9.32
2023-02-02T00:09:33.569Z,12.73
2023-02-02T00:12:01.945Z,8.98
2023-02-02T00:14:29.965Z,13.90
2023-02-02T00:16:58.416Z,6.53
2023-02-02T00:19:30.288Z,10.93
2023-02-02T00:21:58.387Z,10.52
2023-02-02T00:24:26.332Z,7.18
2023-02-02T00:26:56.904Z,14.98
2023-02-02T00:29:27.487Z,18.52
2023-02-02T00:31:55.587Z,11.95
2023-02-02T00:34:24.423Z,16.65
2023-02-02T00:36:52.631Z,12.90
2023-02-02T00:39:26.204Z,15.75
2023-02-02T00:41:54.764Z,11.35
2023-02-02T00:44:41.532Z,10.52
2023-02-02T00:47:09.426Z,12.65
2023-02-02T00:49:37.560Z,10.40
2023-02-02T00:52:05.688Z,22.73
2023-02-02T00:54:33.578Z,13.15
2023-02-02T00:57:01.475Z,15.07
2023-02-02T00:59:29.298Z,20.20
2023-02-02T01:01:57.482Z,8.98
2023-02-02T01:04:25.372Z,20.92
2023-02-02T01:06:53.199Z,11.63
2023-02-02T01:09:21.318Z,10.63
2023-02-02T01:11:49.328Z,13.18
2023-02-02T01:14:17.417Z,17.60
2023-02-02T01:16:45.329Z,14.27
2023-02-02T01:19:15.126Z,13.98
2023-02-02T01:21:43.809Z,11.65
2023-02-02T01:24:11.990Z,10.57
2023-02-02T01:26:40.040Z,14.55
2023-02-02T01:29:07.950Z,11.77
2023-02-02T01:31:35.919Z,10.10
2023-02-02T01:34:03.763Z,15.40
2023-02-02T01:36:31.759Z,18.40
2023-02-02T01:38:59.678Z,10.38
2023-02-02T01:41:28.989Z,10.32
2023-02-02T01:44:00.307Z,8.63
2023-02-02T01:46:36.109Z,17.63
2023-02-02T01:49:13.126Z,12.52
2023-02-02T01:51:48.567Z,17.48
2023-02-02T01:57:01.881Z,10.73
2023-02-02T01:59:31.495Z,11.82
2023-02-02T02:02:00.231Z,13.80
2023-02-02T02:04:31.276Z,13.95
2023-02-02T02:07:00.926Z,16.48
2023-02-02T02:09:29.511Z,10.43
2023-02-02T02:11:58.016Z,13.43
2023-02-02T02:14:45.049Z,17.77
2023-02-02T02:17:18.834Z,7.13
2023-02-02T02:20:24.254Z,7.22
2023-02-02T02:23:42.042Z,6.53
2023-02-02T02:26:35.932Z,13.32
2023-02-02T02:29:24.728Z,11.02
2023-02-02T02:32:24.174Z,9.77
2023-02-02T02:35:13.839Z,13.85
2023-02-02T02:38:01.100Z,5.55
2023-02-02T02:40:54.194Z,8.13
2023-02-02T02:43:31.491Z,14.45
2023-02-02T02:46:00.074Z,9.70
2023-02-02T02:48:29.648Z,9.13
2023-02-02T02:51:09.158Z,9.05
2023-02-02T02:53:38.157Z,6.43
2023-02-02T02:56:12.198Z,7.07
2023-02-02T02:58:53.900Z,5.90
2023-02-02T03:01:30.368Z,6.90
2023-02-02T03:04:04.690Z,7.88
2023-02-02T03:06:49.678Z,9.13
2023-02-02T03:09:25.842Z,5.50
2023-02-02T03:11:55.238Z,6.90
2023-02-02T03:14:23.211Z,5.53
2023-02-02T03:16:54.240Z,6.30
2023-02-02T03:19:22.317Z,7.45
2023-02-02T03:21:50.279Z,3.85
2023-02-02T03:24:18.189Z,13.35
2023-02-02T03:26:46.723Z,6.07
2023-02-02T03:29:14.681Z,8.35
2023-02-02T03:31:42.789Z,2.65
2023-02-02T03:34:10.630Z,3.47
2023-02-02T03:36:38.493Z,4.82
2023-02-02T03:39:06.399Z,6.07
2023-02-02T03:41:34.203Z,7.15
2023-02-02T03:44:02.114Z,6.22
2023-02-02T03:46:30.068Z,8.13
2023-02-02T03:48:57.838Z,7.80
2023-02-02T03:51:25.791Z,10.05
2023-02-02T03:53:53.653Z,5.88
2023-02-02T03:56:21.452Z,10.00
2023-02-02T03:58:49.386Z,13.50
2023-02-02T04:01:17.416Z,18.30
2023-02-02T04:03:46.380Z,11.10
2023-02-02T04:06:14.444Z,16.73
2023-02-02T04:08:42.287Z,11.60
2023-02-02T04:11:11.105Z,14.45
2023-02-02T04:13:40.014Z,9.95
2023-02-02T04:16:08.100Z,12.15
2023-02-02T04:18:39.247Z,13.77
2023-02-02T04:21:08.778Z,17.73
2023-02-02T04:23:37.038Z,14.70
2023-02-02T04:26:05.588Z,14.38
2023-02-02T04:28:33.482Z,17.20
2023-02-02T04:31:01.418Z,17.33
2023-02-02T04:33:29.452Z,14.35
2023-02-02T04:35:57.326Z,14.65
2023-02-02T04:38:25.255Z,16.45
2023-02-02T04:40:53.072Z,12.02
2023-02-02T04:43:20.928Z,17.40
2023-02-02T04:45:50.219Z,17.92
2023-02-02T04:48:18.123Z,16.90
2023-02-02T04:50:45.921Z,16.98
2023-02-02T04:53:13.779Z,14.93
2023-02-02T04:55:41.711Z,17.08
2023-02-02T04:58:09.875Z,15.88
2023-02-02T05:00:37.733Z,16.58
2023-02-02T05:03:05.612Z,20.08
2023-02-02T05:05:33.444Z,19.52
2023-02-02T05:08:01.326Z,13.15
2023-02-02T05:10:29.199Z,15.68
2023-02-02T05:12:57.474Z,20.67
2023-02-02T05:15:25.661Z,15.65
2023-02-02T05:17:53.625Z,9.57
2023-02-02T05:20:21.600Z,13.15
2023-02-02T05:22:50.104Z,15.18
2023-02-02T05:25:18.286Z,18.17
2023-02-02T05:27:46.989Z,17.10
2023-02-02T05:30:15.809Z,12.73
2023-02-02T05:32:44.052Z,12.30
2023-02-02T05:35:11.963Z,17.95
2023-02-02T05:37:42.094Z,12.38
2023-02-02T05:40:10.589Z,17.15
2023-02-02T05:42:38.550Z,15.75
2023-02-02T05:45:06.751Z,18.60
2023-02-02T05:47:35.727Z,22.20
2023-02-02T05:50:03.681Z,18.33
2023-02-02T05:52:34.729Z,14.40
2023-02-02T05:55:02.967Z,11.27
2023-02-02T05:57:30.852Z,17.67
2023-02-02T05:59:58.618Z,19.95
2023-02-02T06:02:26.492Z,17.48
2023-02-02T06:04:54.281Z,13.70
2023-02-02T06:07:22.123Z,21.30
2023-02-02T06:09:49.989Z,25.45
2023-02-02T06:12:19.182Z,11.18
2023-02-02T06:14:46.982Z,19.67
2023-02-02T06:17:14.842Z,13.95
2023-02-02T06:19:42.761Z,14.02
2023-02-02T06:22:10.678Z,13.98
2023-02-02T06:24:39.123Z,15.63
2023-02-02T06:27:07.281Z,16.80
2023-02-02T06:29:35.139Z,12.13
2023-02-02T06:32:03.628Z,14.05
2023-02-02T06:34:31.448Z,14.85
2023-02-02T06:36:59.439Z,13.77
2023-02-02T06:39:27.342Z,18.92
2023-02-02T06:41:55.146Z,17.55
2023-02-02T06:44:22.953Z,12.10
2023-02-02T06:46:50.773Z,14.57
2023-02-02T06:49:18.573Z,10.25
2023-02-02T06:51:48.427Z,18.27
2023-02-02T06:54:16.368Z,16.23
2023-02-02T06:56:44.199Z,14.10
2023-02-02T06:59:12.148Z,11.13
2023-02-02T07:01:40.102Z,15.05
2023-02-02T07:04:07.972Z,16.00
2023-02-02T07:06:36.020Z,15.95
2023-02-02T07:09:03.971Z,9.50
2023-02-02T07:11:35.014Z,16.63
2023-02-02T07:14:08.694Z,17.58
2023-02-02T07:16:36.588Z,19.27
2023-02-02T07:19:04.751Z,11.13
2023-02-02T07:21:36.208Z,15.00
2023-02-02T07:24:06.196Z,16.30
2023-02-02T07:26:36.171Z,11.18
2023-02-02T07:29:04.779Z,10.35
2023-02-02T07:31:35.867Z,13.98
2023-02-02T07:34:04.510Z,13.27
2023-02-02T07:36:32.676Z,14.82
2023-02-02T07:39:03.906Z,11.65
2023-02-02T07:41:33.413Z,12.75
2023-02-02T07:44:01.793Z,10.15
2023-02-02T07:46:29.774Z,12.57
2023-02-02T07:48:58.032Z,14.85
2023-02-02T07:51:26.581Z,12.93
2023-02-02T07:53:58.441Z,11.40
2023-02-02T07:56:28.240Z,13.77
2023-02-02T07:58:57.093Z,11.80
2023-02-02T08:01:27.216Z,13.05
2023-02-02T08:03:58.383Z,16.33
2023-02-02T08:06:28.740Z,12.98
2023-02-02T08:08:56.916Z,14.52
2023-02-02T08:11:26.278Z,15.70
2023-02-02T08:13:56.021Z,12.45
2023-02-02T08:16:25.191Z,11.27
2023-02-02T08:18:53.458Z,7.38
2023-02-02T08:21:22.051Z,11.68
2023-02-02T08:23:51.791Z,11.85
2023-02-02T08:26:27.749Z,15.40
2023-02-02T08:29:01.882Z,11.77
2023-02-02T08:31:34.167Z,12.00
2023-02-02T08:34:02.450Z,10.05
2023-02-02T08:36:31.351Z,10.77
2023-02-02T08:39:10.387Z,10.98
2023-02-02T08:41:38.828Z,8.07
2023-02-02T08:44:10.960Z,12.65
2023-02-02T08:46:39.697Z,12.68
2023-02-02T08:49:10.099Z,11.80
2023-02-02T08:51:37.998Z,12.43
2023-02-02T08:54:05.994Z,11.65
2023-02-02T08:56:33.891Z,14.95
2023-02-02T08:59:04.862Z,18.67
2023-02-02T09:01:34.397Z,16.13
2023-02-02T09:04:13.570Z,13.68
2023-02-02T09:06:42.129Z,17.83
2023-02-02T09:09:13.211Z,13.57
2023-02-02T09:11:41.836Z,18.55
2023-02-02T09:14:12.726Z,16.30
2023-02-02T09:16:40.709Z,19.35
2023-02-02T09:19:10.534Z,18.17
2023-02-02T09:21:38.468Z,19.00
2023-02-02T09:24:11.791Z,14.27
2023-02-02T09:26:40.635Z,20.10
2023-02-02T09:29:12.479Z,16.75
2023-02-02T09:31:40.393Z,20.58
2023-02-02T09:34:14.229Z,21.23
2023-02-02T09:36:42.538Z,14.60
2023-02-02T09:39:12.867Z,18.25
2023-02-02T09:41:40.903Z,19.83
2023-02-02T09:44:30.090Z,13.27
2023-02-02T09:47:12.933Z,13.93
2023-02-02T09:49:57.551Z,23.10
2023-02-02T09:52:30.027Z,16.55
2023-02-02T09:55:24.235Z,12.45
2023-02-02T09:58:15.634Z,15.85
2023-02-02T10:01:05.350Z,16.23
2023-02-02T10:03:43.880Z,18.52
2023-02-02T10:06:36.659Z,12.60
2023-02-02T10:09:20.053Z,15.05
2023-02-02T10:11:54.420Z,14.70
2023-02-02T10:14:50.969Z,19.42
2023-02-02T10:17:40.749Z,17.42
2023-02-02T10:20:50.969Z,18.52
2023-02-02T10:23:29.332Z,12.07
2023-02-02T10:26:15.302Z,15.85
2023-02-02T10:28:55.358Z,12.55
2023-02-02T10:31:30.420Z,16.83
2023-02-02T10:34:23.386Z,15.52
2023-02-02T10:37:17.603Z,14.23
2023-02-02T10:40:20.877Z,12.50
2023-02-02T10:43:32.202Z,16.98
2023-02-02T10:46:02.132Z,16.35
2023-02-02T10:48:35.743Z,18.08
2023-02-02T10:51:13.686Z,18.58
2023-02-02T10:53:50.314Z,16.88
2023-02-02T10:56:31.712Z,16.48
2023-02-02T10:59:38.984Z,16.70
2023-02-02T11:02:20.363Z,15.20
2023-02-02T11:05:07.663Z,21.42
2023-02-02T11:07:37.107Z,16.55
2023-02-02T11:10:05.173Z,14.38
2023-02-02T11:12:41.323Z,18.40
2023-02-02T11:15:25.734Z,15.65
2023-02-02T11:17:54.271Z,13.33
2023-02-02T11:20:34.316Z,19.02
2023-02-02T11:23:04.022Z,21.40
2023-02-02T11:25:35.161Z,18.13
2023-02-02T11:28:24.118Z,21.10
2023-02-02T11:30:53.263Z,16.10
2023-02-02T11:33:30.928Z,15.35
2023-02-02T11:36:01.803Z,15.20
2023-02-02T11:38:30.636Z,21.70
2023-02-02T11:41:09.182Z,13.88
2023-02-02T11:43:56.674Z,14.48
2023-02-02T11:46:32.735Z,14.68
2023-02-02T11:49:13.830Z,12.60
2023-02-02T11:51:42.116Z,17.08
2023-02-02T11:54:25.343Z,16.63
2023-02-02T11:56:56.714Z,12.50
2023-02-02T11:59:37.214Z,19.45
2023-02-02T12:02:22.080Z,17.70
2023-02-02T12:04:52.856Z,17.95
2023-02-02T12:07:31.868Z,17.83
2023-02-02T12:10:02.231Z,18.30
2023-02-02T12:13:01.220Z,15.38
2023-02-02T12:15:52.129Z,23.27
2023-02-02T12:18:19.998Z,13.88
2023-02-02T12:21:06.903Z,12.07
2023-02-02T12:24:07.158Z,15.80
2023-02-02T12:26:39.365Z,15.05
2023-02-02T12:29:27.520Z,15.65
2023-02-02T12:32:23.671Z,14.13
2023-02-02T12:35:21.462Z,16.63
2023-02-02T12:38:06.782Z,12.27
2023-02-02T12:40:56.048Z,14.50
2023-02-02T12:43:41.073Z,15.75
2023-02-02T12:46:36.062Z,23.98
2023-02-02T12:49:32.219Z,15.20
2023-02-02T12:52:23.237Z,15.30
2023-02-02T12:55:08.789Z,14.15
2023-02-02T12:57:45.572Z,15.88
2023-02-02T13:00:38.002Z,23.48
2023-02-02T13:03:29.462Z,20.65
2023-02-02T13:06:21.943Z,14.23
2023-02-02T13:09:19.705Z,22.67
2023-02-02T13:11:56.019Z,15.02
2023-02-02T13:14:30.182Z,14.65
2023-02-02T13:17:04.595Z,11.07
2023-02-02T13:19:43.262Z,19.25
2023-02-02T13:22:40.058Z,16.70
2023-02-02T13:25:17.476Z,12.40
2023-02-02T13:27:46.933Z,16.10
2023-02-02T13:30:24.536Z,11.73
2023-02-02T13:32:54.594Z,11.63
2023-02-02T13:35:31.341Z,16.23
2023-02-02T13:38:24.800Z,12.82
2023-02-02T13:40:56.334Z,9.10
2023-02-02T13:43:42.657Z,12.35
2023-02-02T13:46:29.179Z,16.65
2023-02-02T13:49:13.365Z,11.23
2023-02-02T13:51:51.339Z,11.88
2023-02-02T13:54:41.149Z,13.82
2023-02-02T13:57:42.795Z,14.05
2023-02-02T14:00:17.392Z,15.90
2023-02-02T14:02:56.213Z,16.08
2023-02-02T14:05:29.589Z,14.15
2023-02-02T14:08:06.580Z,15.23
2023-02-02T14:10:38.151Z,11.32
2023-02-02T14:13:40.662Z,11.02
2023-02-02T14:16:20.405Z,10.38
2023-02-02T14:18:50.968Z,8.93
2023-02-02T14:21:34.203Z,12.90
2023-02-02T14:24:08.497Z,12.13
2023-02-02T14:26:42.912Z,12.30
2023-02-02T14:29:32.069Z,7.35
2023-02-02T14:32:25.304Z,16.60
2023-02-02T14:34:55.602Z,11.57
2023-02-02T14:37:26.509Z,12.73
2023-02-02T14:40:00.562Z,9.27
2023-02-02T14:43:17.928Z,9.20
2023-02-02T14:46:11.080Z,7.32
2023-02-02T14:48:40.545Z,8.57
2023-02-02T14:51:23.583Z,8.30
2023-02-02T14:53:55.923Z,8.50
2023-02-02T14:56:42.537Z,5.70
2023-02-02T14:59:20.102Z,4.93
2023-02-02T15:02:13.811Z,4.60
2023-02-02T15:04:42.098Z,3.20
2023-02-02T15:07:25.485Z,7.60
2023-02-02T15:09:56.803Z,6.90
2023-02-02T15:12:35.092Z,5.28
2023-02-02T15:15:17.760Z,4.18
2023-02-02T15:18:13.184Z,4.30
2023-02-02T15:20:48.819Z,4.68
2023-02-02T15:23:39.078Z,2.10
2023-02-02T15:26:19.593Z,4.63
2023-02-02T15:28:58.122Z,2.88
2023-02-02T15:31:47.487Z,4.40
2023-02-02T15:34:21.789Z,3.13
2023-02-02T15:36:54.290Z,2.35
2023-02-02T15:39:33.170Z,1.42
2023-02-02T15:42:26.621Z,3.38
2023-02-02T15:44:54.728Z,2.40
2023-02-02T15:47:29.693Z,2.67
2023-02-02T15:52:32.788Z,2.97
2023-02-02T15:55:01.224Z,4.05
2023-02-02T15:57:32.934Z,2.60
2023-02-02T16:00:20.467Z,2.80
2023-02-02T16:02:58.462Z,4.38
2023-02-02T16:05:32.464Z,4.80
2023-02-02T16:08:06.116Z,2.53
2023-02-02T16:10:35.303Z,3.33
2023-02-02T16:13:03.648Z,6.40
2023-02-02T16:15:32.851Z,3.17
2023-02-02T16:18:07.806Z,3.25
2023-02-02T16:23:12.388Z,3.28
2023-02-02T16:25:53.217Z,4.65
2023-02-02T16:28:22.417Z,7.55
2023-02-02T16:30:54.047Z,6.78
2023-02-02T16:33:43.187Z,6.38
2023-02-02T16:36:26.679Z,5.53
2023-02-02T16:38:57.678Z,8.05
2023-02-02T16:41:36.634Z,10.70
2023-02-02T16:44:39.003Z,8.63
2023-02-02T16:47:28.335Z,9.68
2023-02-02T16:50:28.100Z,8.82
2023-02-02T16:53:03.244Z,9.45
2023-02-02T16:55:47.888Z,12.20
2023-02-02T16:58:22.139Z,9.45
2023-02-02T17:01:13.712Z,9.98
2023-02-02T17:03:51.052Z,12.77
2023-02-02T17:06:41.694Z,11.32
2023-02-02T17:09:29.284Z,14.40
2023-02-02T17:12:33.145Z,13.25
2023-02-02T17:15:18.603Z,10.48
2023-02-02T17:17:48.108Z,13.27
2023-02-02T17:20:18.132Z,10.50
2023-02-02T17:22:59.367Z,12.40
2023-02-02T17:25:31.517Z,13.32
2023-02-02T17:28:00.399Z,12.00
2023-02-02T17:30:30.426Z,15.23
2023-02-02T17:32:58.623Z,13.65
2023-02-02T17:35:29.776Z,16.08
2023-02-02T17:38:02.611Z,16.40
2023-02-02T17:40:30.533Z,13.30
2023-02-02T17:42:58.335Z,17.13
2023-02-02T17:45:34.070Z,16.25
2023-02-02T17:48:03.565Z,21.67
2023-02-02T17:50:33.356Z,17.52
2023-02-02T17:53:01.154Z,22.48
2023-02-02T17:55:32.384Z,10.85
2023-02-02T17:58:00.278Z,16.52
2023-02-02T18:00:31.151Z,22.23
2023-02-02T18:03:10.511Z,12.88
2023-02-02T18:05:40.658Z,22.65
2023-02-02T18:08:12.037Z,22.88
2023-02-02T18:10:40.479Z,13.48
2023-02-02T18:13:13.217Z,18.13
2023-02-02T18:15:41.057Z,13.68
2023-02-02T18:18:09.034Z,18.80
2023-02-02T18:20:36.884Z,15.48
2023-02-02T18:23:04.667Z,22.58
2023-02-02T18:25:32.959Z,15.63
2023-02-02T18:28:00.817Z,22.10
2023-02-02T18:30:28.675Z,21.65
2023-02-02T18:32:56.511Z,14.88
2023-02-02T18:35:25.571Z,17.08
2023-02-02T18:37:53.545Z,16.27
2023-02-02T18:40:21.456Z,17.75
2023-02-02T18:42:49.316Z,15.15
2023-02-02T18:45:17.471Z,21.50
2023-02-02T18:47:45.217Z,20.95
2023-02-02T18:50:13.943Z,23.60
2023-02-02T18:52:41.757Z,21.85
2023-02-02T18:55:09.924Z,23.75
2023-02-02T18:57:37.698Z,17.70
2023-02-02T19:00:06.712Z,28.83
2023-02-02T19:02:34.649Z,17.65
2023-02-02T19:05:20.906Z,20.05
2023-02-02T19:07:54.505Z,17.83
2023-02-02T19:10:23.867Z,16.92
2023-02-02T19:12:57.319Z,22.17
2023-02-02T19:15:26.806Z,17.10
2023-02-02T19:17:55.606Z,20.25
2023-02-02T19:20:29.345Z,20.60
2023-02-02T19:23:06.890Z,17.55
2023-02-02T19:25:34.864Z,15.75
2023-02-02T19:28:30.652Z,24.70
2023-02-02T19:33:41.390Z,21.52
2023-02-02T19:36:18.894Z,19.08
2023-02-02T19:38:48.285Z,19.17
2023-02-02T19:41:20.549Z,22.02
2023-02-02T19:43:51.587Z,18.65
2023-02-02T19:46:22.965Z,21.00
2023-02-02T19:48:59.020Z,15.90
2023-02-02T19:51:35.867Z,22.45
2023-02-02T19:54:04.981Z,19.42
2023-02-02T19:56:39.526Z,16.63
2023-02-02T19:59:17.899Z,18.92
2023-02-02T20:01:47.936Z,19.98
2023-02-02T20:04:19.771Z,18.92
2023-02-02T20:06:58.626Z,20.90
2023-02-02T20:09:33.437Z,18.52
2023-02-02T20:12:13.005Z,14.35
2023-02-02T20:14:41.374Z,17.65
2023-02-02T20:17:19.636Z,17.48
2023-02-02T20:19:47.637Z,17.58
2023-02-02T20:22:28.332Z,19.13
2023-02-02T20:25:03.871Z,17.25
2023-02-02T20:27:34.356Z,21.15
2023-02-02T20:30:18.957Z,21.10
2023-02-02T20:32:55.075Z,16.88
2023-02-02T20:35:35.942Z,15.68
2023-02-02T20:38:24.994Z,16.15
2023-02-02T20:40:53.292Z,13.13
2023-02-02T20:43:21.995Z,18.92
2023-02-02T20:45:50.810Z,19.65
2023-02-02T20:48:18.972Z,15.88
2023-02-02T20:50:46.996Z,15.48
2023-02-02T20:53:16.489Z,10.77
2023-02-02T20:55:45.058Z,17.30
2023-02-02T20:58:13.235Z,14.15
2023-02-02T21:00:41.185Z,8.68
2023-02-02T21:03:09.207Z,18.58
2023-02-02T21:05:38.060Z,18.08
2023-02-02T21:08:07.044Z,18.33
2023-02-02T21:10:35.026Z,18.35
2023-02-02T21:13:02.941Z,14.13
2023-02-02T21:15:30.822Z,12.85
2023-02-02T21:17:58.782Z,15.57
2023-02-02T21:20:27.260Z,13.63
2023-02-02T21:22:56.751Z,18.30
2023-02-02T21:25:24.758Z,16.80
2023-02-02T21:27:56.768Z,14.50
2023-02-02T21:30:24.782Z,13.63
2023-02-02T21:32:53.003Z,12.68
2023-02-02T21:35:21.187Z,14.13
2023-02-02T21:37:54.170Z,9.32
2023-02-02T21:40:34.371Z,16.33
2023-02-02T21:43:17.484Z,13.68
2023-02-02T21:45:51.523Z,11.65
2023-02-02T21:48:39.642Z,13.57
2023-02-02T21:51:34.976Z,13.75
2023-02-02T21:54:18.313Z,8.32
2023-02-02T21:56:46.389Z,10.32
2023-02-02T21:59:20.841Z,13.55
2023-02-02T22:01:50.589Z,13.50
2023-02-02T22:04:28.768Z,15.57
2023-02-02T22:07:09.097Z,17.80
2023-02-02T22:09:45.005Z,15.10
2023-02-02T22:12:20.479Z,14.02
2023-02-02T22:14:50.842Z,13.50
2023-02-02T22:17:22.326Z,13.75
2023-02-02T22:20:16.291Z,14.43
2023-02-02T22:22:50.388Z,18.17
2023-02-02T22:25:18.245Z,12.05
2023-02-02T22:27:57.478Z,10.88
2023-02-02T22:30:36.769Z,12.73
2023-02-02T22:33:06.411Z,17.80
2023-02-02T22:35:35.154Z,11.25
2023-02-02T22:38:03.875Z,13.25
2023-02-02T22:40:32.016Z,9.35
2023-02-02T22:43:02.391Z,14.07
2023-02-02T22:45:30.220Z,12.00
2023-02-02T22:47:58.636Z,11.68
2023-02-02T22:50:29.124Z,13.75
2023-02-02T22:52:57.674Z,8.77
2023-02-02T22:55:25.903Z,9.80
2023-02-02T22:57:54.198Z,13.32
2023-02-02T23:00:27.913Z,17.85
2023-02-02T23:02:56.987Z,9.23
2023-02-02T23:05:26.728Z,13.45
2023-02-02T23:07:55.625Z,12.70
2023-02-02T23:10:26.604Z,12.63
2023-02-02T23:12:55.918Z,13.60
2023-02-02T23:15:24.019Z,11.40
2023-02-02T23:17:52.434Z,11.07
2023-02-02T23:20:20.489Z,14.07
2023-02-02T23:22:49.236Z,15.63
2023-02-02T23:25:18.810Z,13.00
2023-02-02T23:27:46.884Z,15.23
2023-02-02T23:30:15.709Z,13.18
2023-02-02T23:32:43.613Z,12.90
2023-02-02T23:35:11.485Z,10.02
2023-02-02T23:37:39.620Z,12.80
2023-02-02T23:40:08.209Z,11.77
2023-02-02T23:42:36.023Z,14.82
2023-02-02T23:45:04.395Z,13.35
2023-02-02T23:47:33.953Z,14.52
2023-02-02T23:50:05.115Z,11.85
2023-02-02T23:52:34.139Z,16.85
2023-02-02T23:55:02.992Z,13.85
2023-02-02T23:57:33.582Z,13.63
